sensor_id;sensor_type;location;lat;lon;timestamp;temperature;humidity
17421;DHT22;8828;48.800;9.540;2023-04-07T00:01:28;11.00;87.30
17421;DHT22;8828;48.800;9.540;2023-04-07T00:03:56;11.00;87.50
17421;DHT22;8828;48.800;9.540;2023-04-07T00:06:25;11.00;87.90
17421;DHT22;8828;48.800;9.540;2023-04-07T00:08:53;11.00;87.60
17421;DHT22;8828;48.800;9.540;2023-04-07T00:11:21;11.00;88.50
17421;DHT22;8828;48.800;9.540;2023-04-07T00:13:50;10.90;89.40
17421;DHT22;8828;48.800;9.540;2023-04-07T00:16:18;11.00;89.20
17421;DHT22;8828;48.800;9.540;2023-04-07T00:18:46;11.00;89.80
17421;DHT22;8828;48.800;9.540;2023-04-07T00:21:14;11.00;90.00
17421;DHT22;8828;48.800;9.540;2023-04-07T00:23:42;11.00;90.60
17421;DHT22;8828;48.800;9.540;2023-04-07T00:26:10;11.00;90.90
17421;DHT22;8828;48.800;9.540;2023-04-07T00:28:38;10.90;91.30
17421;DHT22;8828;48.800;9.540;2023-04-07T00:31:07;10.90;91.70
17421;DHT22;8828;48.800;9.540;2023-04-07T00:33:35;10.90;92.40
17421;DHT22;8828;48.800;9.540;2023-04-07T00:36:04;10.90;93.10
17421;DHT22;8828;48.800;9.540;2023-04-07T00:38:32;10.80;93.80
17421;DHT22;8828;48.800;9.540;2023-04-07T00:41:00;10.80;94.50
17421;DHT22;8828;48.800;9.540;2023-04-07T00:43:28;10.70;95.20
17421;DHT22;8828;48.800;9.540;2023-04-07T00:45:56;10.70;95.90
17421;DHT22;8828;48.800;9.540;2023-04-07T00:48:25;10.70;96.70
17421;DHT22;8828;48.800;9.540;2023-04-07T00:50:53;10.70;97.60
17421;DHT22;8828;48.800;9.540;2023-04-07T00:53:21;10.60;98.30
17421;DHT22;8828;48.800;9.540;2023-04-07T00:55:49;10.60;99.10
17421;DHT22;8828;48.800;9.540;2023-04-07T00:58:17;10.50;99.90
17421;DHT22;8828;48.800;9.540;2023-04-07T01:00:48;10.50;99.90
17421;DHT22;8828;48.800;9.540;2023-04-07T01:03:21;10.50;99.90
17421;DHT22;8828;48.800;9.540;2023-04-07T01:05:58;10.50;99.90
17421;DHT22;8828;48.800;9.540;2023-04-07T01:08:31;10.50;99.90
17421;DHT22;8828;48.800;9.540;2023-04-07T01:11:04;10.50;99.90
17421;DHT22;8828;48.800;9.540;2023-04-07T01:13:37;10.50;99.90
17421;DHT22;8828;48.800;9.540;2023-04-07T01:16:11;10.50;99.90
17421;DHT22;8828;48.800;9.540;2023-04-07T01:18:40;10.40;99.90
17421;DHT22;8828;48.800;9.540;2023-04-07T01:21:16;10.40;99.90
17421;DHT22;8828;48.800;9.540;2023-04-07T01:24:01;10.30;99.90
17421;DHT22;8828;48.800;9.540;2023-04-07T01:26:32;10.30;99.90
17421;DHT22;8828;48.800;9.540;2023-04-07T01:32:00;10.20;99.90
17421;DHT22;8828;48.800;9.540;2023-04-07T01:34:30;10.30;99.90
17421;DHT22;8828;48.800;9.540;2023-04-07T01:37:00;10.20;99.90
17421;DHT22;8828;48.800;9.540;2023-04-07T01:39:29;10.20;99.90
17421;DHT22;8828;48.800;9.540;2023-04-07T01:41:58;10.20;99.90
17421;DHT22;8828;48.800;9.540;2023-04-07T01:44:28;10.20;99.90
17421;DHT22;8828;48.800;9.540;2023-04-07T01:46:56;10.20;99.90
17421;DHT22;8828;48.800;9.540;2023-04-07T01:49:26;10.20;99.90
17421;DHT22;8828;48.800;9.540;2023-04-07T01:51:55;10.10;99.90
17421;DHT22;8828;48.800;9.540;2023-04-07T01:54:24;10.10;99.90
17421;DHT22;8828;48.800;9.540;2023-04-07T01:56:53;10.10;99.90
17421;DHT22;8828;48.800;9.540;2023-04-07T01:59:22;10.10;99.90
17421;DHT22;8828;48.800;9.540;2023-04-07T02:01:49;10.10;99.90
17421;DHT22;8828;48.800;9.540;2023-04-07T02:04:23;10.10;99.90
17421;DHT22;8828;48.800;9.540;2023-04-07T02:06:56;10.10;99.90
17421;DHT22;8828;48.800;9.540;2023-04-07T02:09:26;10.10;99.90
17421;DHT22;8828;48.800;9.540;2023-04-07T02:11:57;10.10;99.90
17421;DHT22;8828;48.800;9.540;2023-04-07T02:14:27;10.10;99.90
17421;DHT22;8828;48.800;9.540;2023-04-07T02:16:56;10.10;99.90
17421;DHT22;8828;48.800;9.540;2023-04-07T02:19:26;10.10;99.90
17421;DHT22;8828;48.800;9.540;2023-04-07T02:21:58;10.10;99.90
17421;DHT22;8828;48.800;9.540;2023-04-07T02:24:27;10.10;99.90
17421;DHT22;8828;48.800;9.540;2023-04-07T02:26:55;10.10;99.90
17421;DHT22;8828;48.800;9.540;2023-04-07T02:29:23;10.10;99.90
17421;DHT22;8828;48.800;9.540;2023-04-07T02:31:51;10.10;99.90
17421;DHT22;8828;48.800;9.540;2023-04-07T02:34:19;10.10;99.90
17421;DHT22;8828;48.800;9.540;2023-04-07T02:36:46;10.00;99.90
17421;DHT22;8828;48.800;9.540;2023-04-07T02:39:16;10.10;99.90
17421;DHT22;8828;48.800;9.540;2023-04-07T02:41:44;10.00;99.90
17421;DHT22;8828;48.800;9.540;2023-04-07T02:44:11;10.00;99.90
17421;DHT22;8828;48.800;9.540;2023-04-07T02:46:39;10.10;99.90
17421;DHT22;8828;48.800;9.540;2023-04-07T02:49:08;10.10;99.90
17421;DHT22;8828;48.800;9.540;2023-04-07T02:51:35;10.00;99.90
17421;DHT22;8828;48.800;9.540;2023-04-07T02:54:03;10.00;99.90
17421;DHT22;8828;48.800;9.540;2023-04-07T02:56:33;10.00;99.90
17421;DHT22;8828;48.800;9.540;2023-04-07T02:59:01;10.00;99.90
17421;DHT22;8828;48.800;9.540;2023-04-07T03:01:28;9.90;99.90
17421;DHT22;8828;48.800;9.540;2023-04-07T03:03:57;9.90;99.90
17421;DHT22;8828;48.800;9.540;2023-04-07T03:06:25;9.90;99.90
17421;DHT22;8828;48.800;9.540;2023-04-07T03:08:53;9.90;99.90
17421;DHT22;8828;48.800;9.540;2023-04-07T03:11:21;9.90;99.90
17421;DHT22;8828;48.800;9.540;2023-04-07T03:13:50;9.90;99.90
17421;DHT22;8828;48.800;9.540;2023-04-07T03:16:19;9.90;99.90
17421;DHT22;8828;48.800;9.540;2023-04-07T03:18:47;9.90;99.90
17421;DHT22;8828;48.800;9.540;2023-04-07T03:21:14;9.80;99.90
17421;DHT22;8828;48.800;9.540;2023-04-07T03:23:42;9.80;99.90
17421;DHT22;8828;48.800;9.540;2023-04-07T03:26:10;9.80;99.90
17421;DHT22;8828;48.800;9.540;2023-04-07T03:28:38;9.80;99.90
17421;DHT22;8828;48.800;9.540;2023-04-07T03:31:07;9.80;99.90
17421;DHT22;8828;48.800;9.540;2023-04-07T03:33:35;9.80;99.90
17421;DHT22;8828;48.800;9.540;2023-04-07T03:36:04;9.80;99.90
17421;DHT22;8828;48.800;9.540;2023-04-07T03:38:32;9.80;99.90
17421;DHT22;8828;48.800;9.540;2023-04-07T03:41:00;9.80;99.90
17421;DHT22;8828;48.800;9.540;2023-04-07T03:43:28;9.80;99.90
17421;DHT22;8828;48.800;9.540;2023-04-07T03:45:56;9.80;99.90
17421;DHT22;8828;48.800;9.540;2023-04-07T03:48:25;9.80;99.90
17421;DHT22;8828;48.800;9.540;2023-04-07T03:50:55;9.90;99.90
17421;DHT22;8828;48.800;9.540;2023-04-07T03:53:23;9.90;99.90
17421;DHT22;8828;48.800;9.540;2023-04-07T03:55:51;9.90;99.90
17421;DHT22;8828;48.800;9.540;2023-04-07T03:58:19;9.80;99.90
17421;DHT22;8828;48.800;9.540;2023-04-07T04:00:47;9.80;99.90
17421;DHT22;8828;48.800;9.540;2023-04-07T04:03:15;9.80;99.90
17421;DHT22;8828;48.800;9.540;2023-04-07T04:05:44;9.80;99.90
17421;DHT22;8828;48.800;9.540;2023-04-07T04:08:12;9.80;99.90
17421;DHT22;8828;48.800;9.540;2023-04-07T04:10:40;9.80;99.90
17421;DHT22;8828;48.800;9.540;2023-04-07T04:13:08;9.70;99.90
17421;DHT22;8828;48.800;9.540;2023-04-07T04:15:36;9.70;99.90
17421;DHT22;8828;48.800;9.540;2023-04-07T04:18:04;9.70;99.90
17421;DHT22;8828;48.800;9.540;2023-04-07T04:20:33;9.70;99.90
17421;DHT22;8828;48.800;9.540;2023-04-07T04:23:02;9.70;99.90
17421;DHT22;8828;48.800;9.540;2023-04-07T04:25:30;9.70;99.90
17421;DHT22;8828;48.800;9.540;2023-04-07T04:27:58;9.70;99.90
17421;DHT22;8828;48.800;9.540;2023-04-07T04:30:26;9.70;99.90
17421;DHT22;8828;48.800;9.540;2023-04-07T04:32:54;9.60;99.90
17421;DHT22;8828;48.800;9.540;2023-04-07T04:35:22;9.60;99.90
17421;DHT22;8828;48.800;9.540;2023-04-07T04:37:51;9.60;99.90
17421;DHT22;8828;48.800;9.540;2023-04-07T04:40:20;9.60;99.90
17421;DHT22;8828;48.800;9.540;2023-04-07T04:42:48;9.60;99.90
17421;DHT22;8828;48.800;9.540;2023-04-07T04:45:16;9.60;99.90
17421;DHT22;8828;48.800;9.540;2023-04-07T04:47:44;9.60;99.90
17421;DHT22;8828;48.800;9.540;2023-04-07T04:50:12;9.60;99.90
17421;DHT22;8828;48.800;9.540;2023-04-07T04:52:40;9.50;99.90
17421;DHT22;8828;48.800;9.540;2023-04-07T04:55:09;9.50;99.90
17421;DHT22;8828;48.800;9.540;2023-04-07T04:57:41;9.50;99.90
17421;DHT22;8828;48.800;9.540;2023-04-07T05:00:10;9.50;99.90
17421;DHT22;8828;48.800;9.540;2023-04-07T05:02:38;9.50;99.90
17421;DHT22;8828;48.800;9.540;2023-04-07T05:05:07;9.50;99.90
17421;DHT22;8828;48.800;9.540;2023-04-07T05:07:35;9.40;99.90
17421;DHT22;8828;48.800;9.540;2023-04-07T05:10:03;9.40;99.90
17421;DHT22;8828;48.800;9.540;2023-04-07T05:12:31;9.40;99.90
17421;DHT22;8828;48.800;9.540;2023-04-07T05:15:01;9.40;99.90
17421;DHT22;8828;48.800;9.540;2023-04-07T05:17:28;9.40;99.90
17421;DHT22;8828;48.800;9.540;2023-04-07T05:19:56;9.40;99.90
17421;DHT22;8828;48.800;9.540;2023-04-07T05:22:24;9.40;99.90
17421;DHT22;8828;48.800;9.540;2023-04-07T05:24:52;9.50;99.90
17421;DHT22;8828;48.800;9.540;2023-04-07T05:27:20;9.50;99.90
17421;DHT22;8828;48.800;9.540;2023-04-07T05:29:48;9.50;99.90
17421;DHT22;8828;48.800;9.540;2023-04-07T05:32:18;9.40;99.90
17421;DHT22;8828;48.800;9.540;2023-04-07T05:34:46;9.40;99.90
17421;DHT22;8828;48.800;9.540;2023-04-07T05:37:14;9.40;99.90
17421;DHT22;8828;48.800;9.540;2023-04-07T05:39:42;9.40;99.90
17421;DHT22;8828;48.800;9.540;2023-04-07T05:42:10;9.40;99.90
17421;DHT22;8828;48.800;9.540;2023-04-07T05:44:38;9.40;99.90
17421;DHT22;8828;48.800;9.540;2023-04-07T05:47:05;9.40;99.90
17421;DHT22;8828;48.800;9.540;2023-04-07T05:49:36;9.40;99.90
17421;DHT22;8828;48.800;9.540;2023-04-07T05:52:11;9.40;99.90
17421;DHT22;8828;48.800;9.540;2023-04-07T05:54:39;9.40;99.90
17421;DHT22;8828;48.800;9.540;2023-04-07T05:57:07;9.40;99.90
17421;DHT22;8828;48.800;9.540;2023-04-07T05:59:35;9.50;99.90
17421;DHT22;8828;48.800;9.540;2023-04-07T06:02:04;9.50;99.90
17421;DHT22;8828;48.800;9.540;2023-04-07T06:04:32;9.50;99.90
17421;DHT22;8828;48.800;9.540;2023-04-07T06:07:02;9.50;99.90
17421;DHT22;8828;48.800;9.540;2023-04-07T06:09:31;9.60;99.90
17421;DHT22;8828;48.800;9.540;2023-04-07T06:11:58;9.60;99.90
17421;DHT22;8828;48.800;9.540;2023-04-07T06:14:27;9.60;99.90
17421;DHT22;8828;48.800;9.540;2023-04-07T06:16:55;9.60;99.90
17421;DHT22;8828;48.800;9.540;2023-04-07T06:19:23;9.60;99.90
17421;DHT22;8828;48.800;9.540;2023-04-07T06:21:53;9.60;99.90
17421;DHT22;8828;48.800;9.540;2023-04-07T06:24:22;9.60;99.90
17421;DHT22;8828;48.800;9.540;2023-04-07T06:26:51;9.60;99.90
17421;DHT22;8828;48.800;9.540;2023-04-07T06:29:19;9.60;99.90
17421;DHT22;8828;48.800;9.540;2023-04-07T06:31:47;9.60;99.90
17421;DHT22;8828;48.800;9.540;2023-04-07T06:34:15;9.60;99.90
17421;DHT22;8828;48.800;9.540;2023-04-07T06:36:43;9.70;99.90
17421;DHT22;8828;48.800;9.540;2023-04-07T06:39:12;9.70;99.90
17421;DHT22;8828;48.800;9.540;2023-04-07T06:41:41;9.70;99.90
17421;DHT22;8828;48.800;9.540;2023-04-07T06:44:09;9.70;99.90
17421;DHT22;8828;48.800;9.540;2023-04-07T06:46:37;9.70;99.90
17421;DHT22;8828;48.800;9.540;2023-04-07T06:49:07;9.70;99.90
17421;DHT22;8828;48.800;9.540;2023-04-07T06:51:35;9.80;99.90
17421;DHT22;8828;48.800;9.540;2023-04-07T06:54:03;9.80;99.90
17421;DHT22;8828;48.800;9.540;2023-04-07T06:56:33;9.80;99.90
17421;DHT22;8828;48.800;9.540;2023-04-07T06:59:02;9.80;99.90
17421;DHT22;8828;48.800;9.540;2023-04-07T07:01:31;9.90;99.90
17421;DHT22;8828;48.800;9.540;2023-04-07T07:03:59;9.90;99.90
17421;DHT22;8828;48.800;9.540;2023-04-07T07:06:27;10.00;99.90
17421;DHT22;8828;48.800;9.540;2023-04-07T07:08:55;9.90;99.90
17421;DHT22;8828;48.800;9.540;2023-04-07T07:11:23;10.00;99.90
17421;DHT22;8828;48.800;9.540;2023-04-07T07:13:51;10.00;99.90
17421;DHT22;8828;48.800;9.540;2023-04-07T07:16:20;10.00;99.90
17421;DHT22;8828;48.800;9.540;2023-04-07T07:18:49;10.00;99.90
17421;DHT22;8828;48.800;9.540;2023-04-07T07:21:17;10.00;99.90
17421;DHT22;8828;48.800;9.540;2023-04-07T07:23:45;10.00;99.90
17421;DHT22;8828;48.800;9.540;2023-04-07T07:26:14;10.10;99.90
17421;DHT22;8828;48.800;9.540;2023-04-07T07:28:42;10.10;99.90
17421;DHT22;8828;48.800;9.540;2023-04-07T07:31:10;10.20;99.90
17421;DHT22;8828;48.800;9.540;2023-04-07T07:33:42;10.30;99.90
17421;DHT22;8828;48.800;9.540;2023-04-07T07:36:12;10.60;99.90
17421;DHT22;8828;48.800;9.540;2023-04-07T07:38:40;11.10;99.90
17421;DHT22;8828;48.800;9.540;2023-04-07T07:41:08;11.60;99.90
17421;DHT22;8828;48.800;9.540;2023-04-07T07:43:36;12.00;99.90
17421;DHT22;8828;48.800;9.540;2023-04-07T07:46:04;12.40;99.90
17421;DHT22;8828;48.800;9.540;2023-04-07T07:48:32;12.80;99.90
17421;DHT22;8828;48.800;9.540;2023-04-07T07:51:01;12.80;99.90
17421;DHT22;8828;48.800;9.540;2023-04-07T07:53:29;12.70;99.90
17421;DHT22;8828;48.800;9.540;2023-04-07T07:55:57;12.60;99.90
17421;DHT22;8828;48.800;9.540;2023-04-07T07:58:25;12.50;99.90
17421;DHT22;8828;48.800;9.540;2023-04-07T08:00:53;12.50;99.90
17421;DHT22;8828;48.800;9.540;2023-04-07T08:03:21;12.40;99.90
17421;DHT22;8828;48.800;9.540;2023-04-07T08:05:49;12.30;99.90
17421;DHT22;8828;48.800;9.540;2023-04-07T08:08:18;12.60;99.90
17421;DHT22;8828;48.800;9.540;2023-04-07T08:10:46;12.90;99.90
17421;DHT22;8828;48.800;9.540;2023-04-07T08:13:14;12.90;99.90
17421;DHT22;8828;48.800;9.540;2023-04-07T08:15:42;13.30;99.90
17421;DHT22;8828;48.800;9.540;2023-04-07T08:18:10;13.50;99.90
17421;DHT22;8828;48.800;9.540;2023-04-07T08:20:38;13.50;99.90
17421;DHT22;8828;48.800;9.540;2023-04-07T08:23:06;13.60;99.90
17421;DHT22;8828;48.800;9.540;2023-04-07T08:25:35;13.80;99.90
17421;DHT22;8828;48.800;9.540;2023-04-07T08:28:05;14.00;99.90
17421;DHT22;8828;48.800;9.540;2023-04-07T08:30:33;14.20;99.90
17421;DHT22;8828;48.800;9.540;2023-04-07T08:33:04;14.40;99.90
17421;DHT22;8828;48.800;9.540;2023-04-07T08:35:32;14.60;99.90
17421;DHT22;8828;48.800;9.540;2023-04-07T08:38:00;14.80;99.90
17421;DHT22;8828;48.800;9.540;2023-04-07T08:40:29;15.10;99.90
17421;DHT22;8828;48.800;9.540;2023-04-07T08:42:59;15.30;99.90
17421;DHT22;8828;48.800;9.540;2023-04-07T08:45:28;15.40;99.90
17421;DHT22;8828;48.800;9.540;2023-04-07T08:47:58;15.30;99.90
17421;DHT22;8828;48.800;9.540;2023-04-07T08:50:30;15.50;99.90
17421;DHT22;8828;48.800;9.540;2023-04-07T08:53:01;15.70;99.90
17421;DHT22;8828;48.800;9.540;2023-04-07T08:55:34;15.70;99.90
17421;DHT22;8828;48.800;9.540;2023-04-07T08:58:04;15.60;99.90
17421;DHT22;8828;48.800;9.540;2023-04-07T09:00:32;15.60;99.90
17421;DHT22;8828;48.800;9.540;2023-04-07T09:03:00;15.40;99.90
17421;DHT22;8828;48.800;9.540;2023-04-07T09:05:29;15.30;99.90
17421;DHT22;8828;48.800;9.540;2023-04-07T09:07:57;15.30;99.90
17421;DHT22;8828;48.800;9.540;2023-04-07T09:10:25;15.30;99.90
17421;DHT22;8828;48.800;9.540;2023-04-07T09:12:53;15.20;99.90
17421;DHT22;8828;48.800;9.540;2023-04-07T09:15:23;15.10;99.90
17421;DHT22;8828;48.800;9.540;2023-04-07T09:17:52;14.90;99.90
17421;DHT22;8828;48.800;9.540;2023-04-07T09:20:20;14.80;99.90
17421;DHT22;8828;48.800;9.540;2023-04-07T09:22:48;14.70;99.90
17421;DHT22;8828;48.800;9.540;2023-04-07T09:25:17;14.60;99.90
17421;DHT22;8828;48.800;9.540;2023-04-07T09:27:56;14.40;99.90
17421;DHT22;8828;48.800;9.540;2023-04-07T09:30:27;14.20;99.90
17421;DHT22;8828;48.800;9.540;2023-04-07T09:32:57;14.10;99.90
17421;DHT22;8828;48.800;9.540;2023-04-07T09:35:25;14.00;99.90
17421;DHT22;8828;48.800;9.540;2023-04-07T09:38:01;14.10;99.90
17421;DHT22;8828;48.800;9.540;2023-04-07T09:40:30;14.10;99.90
17421;DHT22;8828;48.800;9.540;2023-04-07T09:42:58;14.20;99.90
17421;DHT22;8828;48.800;9.540;2023-04-07T09:45:29;14.10;99.90
17421;DHT22;8828;48.800;9.540;2023-04-07T09:48:04;14.10;99.90
17421;DHT22;8828;48.800;9.540;2023-04-07T09:50:35;14.10;99.90
17421;DHT22;8828;48.800;9.540;2023-04-07T09:53:03;14.20;99.90
17421;DHT22;8828;48.800;9.540;2023-04-07T09:55:31;14.30;99.90
17421;DHT22;8828;48.800;9.540;2023-04-07T09:57:59;14.30;99.90
17421;DHT22;8828;48.800;9.540;2023-04-07T10:00:29;14.20;99.90
17421;DHT22;8828;48.800;9.540;2023-04-07T10:02:57;14.20;99.90
17421;DHT22;8828;48.800;9.540;2023-04-07T10:05:26;14.10;99.90
17421;DHT22;8828;48.800;9.540;2023-04-07T10:07:55;14.10;99.90
17421;DHT22;8828;48.800;9.540;2023-04-07T10:10:24;14.10;99.90
17421;DHT22;8828;48.800;9.540;2023-04-07T10:12:53;14.10;99.90
17421;DHT22;8828;48.800;9.540;2023-04-07T10:15:22;14.10;99.90
17421;DHT22;8828;48.800;9.540;2023-04-07T10:17:53;14.00;99.90
17421;DHT22;8828;48.800;9.540;2023-04-07T10:20:23;14.10;99.90
17421;DHT22;8828;48.800;9.540;2023-04-07T10:22:52;14.10;99.90
17421;DHT22;8828;48.800;9.540;2023-04-07T10:25:23;14.00;99.90
17421;DHT22;8828;48.800;9.540;2023-04-07T10:27:55;14.00;99.90
17421;DHT22;8828;48.800;9.540;2023-04-07T10:30:28;14.00;99.90
17421;DHT22;8828;48.800;9.540;2023-04-07T10:32:58;14.00;99.90
17421;DHT22;8828;48.800;9.540;2023-04-07T10:35:26;14.10;99.90
17421;DHT22;8828;48.800;9.540;2023-04-07T10:38:11;14.10;99.90
17421;DHT22;8828;48.800;9.540;2023-04-07T10:40:41;14.10;99.90
17421;DHT22;8828;48.800;9.540;2023-04-07T10:43:09;14.10;99.90
17421;DHT22;8828;48.800;9.540;2023-04-07T10:45:56;14.20;99.90
17421;DHT22;8828;48.800;9.540;2023-04-07T10:48:27;14.20;99.90
17421;DHT22;8828;48.800;9.540;2023-04-07T10:51:15;14.20;99.90
17421;DHT22;8828;48.800;9.540;2023-04-07T10:57:09;14.10;99.90
17421;DHT22;8828;48.800;9.540;2023-04-07T10:59:40;14.00;99.90
17421;DHT22;8828;48.800;9.540;2023-04-07T11:02:34;14.00;99.90
17421;DHT22;8828;48.800;9.540;2023-04-07T11:05:04;14.00;99.90
17421;DHT22;8828;48.800;9.540;2023-04-07T11:07:47;14.00;99.90
17421;DHT22;8828;48.800;9.540;2023-04-07T11:10:16;14.00;99.90
17421;DHT22;8828;48.800;9.540;2023-04-07T11:12:57;14.10;99.90
17421;DHT22;8828;48.800;9.540;2023-04-07T11:15:26;14.10;99.90
17421;DHT22;8828;48.800;9.540;2023-04-07T11:18:14;14.20;99.90
17421;DHT22;8828;48.800;9.540;2023-04-07T11:20:46;14.20;99.90
17421;DHT22;8828;48.800;9.540;2023-04-07T11:23:14;14.20;99.90
17421;DHT22;8828;48.800;9.540;2023-04-07T11:25:45;14.20;99.90
17421;DHT22;8828;48.800;9.540;2023-04-07T11:28:13;14.30;99.90
17421;DHT22;8828;48.800;9.540;2023-04-07T11:30:47;14.20;99.90
17421;DHT22;8828;48.800;9.540;2023-04-07T11:33:19;14.20;99.90
17421;DHT22;8828;48.800;9.540;2023-04-07T11:35:51;14.20;99.90
17421;DHT22;8828;48.800;9.540;2023-04-07T11:38:21;14.20;99.90
17421;DHT22;8828;48.800;9.540;2023-04-07T11:40:49;14.20;99.90
17421;DHT22;8828;48.800;9.540;2023-04-07T11:43:18;14.20;99.90
17421;DHT22;8828;48.800;9.540;2023-04-07T11:46:03;14.20;99.90
17421;DHT22;8828;48.800;9.540;2023-04-07T11:48:32;14.30;99.90
17421;DHT22;8828;48.800;9.540;2023-04-07T11:51:02;14.30;99.90
17421;DHT22;8828;48.800;9.540;2023-04-07T11:53:31;14.40;99.90
17421;DHT22;8828;48.800;9.540;2023-04-07T11:56:03;14.50;99.90
17421;DHT22;8828;48.800;9.540;2023-04-07T11:58:32;14.50;99.90
17421;DHT22;8828;48.800;9.540;2023-04-07T12:01:01;14.60;99.90
17421;DHT22;8828;48.800;9.540;2023-04-07T12:03:36;14.70;99.90
17421;DHT22;8828;48.800;9.540;2023-04-07T12:06:06;14.80;99.90
17421;DHT22;8828;48.800;9.540;2023-04-07T12:08:38;14.80;99.90
17421;DHT22;8828;48.800;9.540;2023-04-07T12:11:07;14.80;99.90
17421;DHT22;8828;48.800;9.540;2023-04-07T12:13:36;14.80;99.90
17421;DHT22;8828;48.800;9.540;2023-04-07T12:16:05;14.90;99.90
17421;DHT22;8828;48.800;9.540;2023-04-07T12:18:33;14.90;99.90
17421;DHT22;8828;48.800;9.540;2023-04-07T12:21:02;14.90;99.90
17421;DHT22;8828;48.800;9.540;2023-04-07T12:23:31;14.90;99.90
17421;DHT22;8828;48.800;9.540;2023-04-07T12:25:59;14.90;99.90
17421;DHT22;8828;48.800;9.540;2023-04-07T12:28:27;14.90;99.90
17421;DHT22;8828;48.800;9.540;2023-04-07T12:30:55;14.90;99.90
17421;DHT22;8828;48.800;9.540;2023-04-07T12:33:24;14.90;99.90
17421;DHT22;8828;48.800;9.540;2023-04-07T12:35:52;15.00;99.90
17421;DHT22;8828;48.800;9.540;2023-04-07T12:38:20;15.00;99.90
17421;DHT22;8828;48.800;9.540;2023-04-07T12:40:50;15.10;99.90
17421;DHT22;8828;48.800;9.540;2023-04-07T12:43:18;15.10;99.90
17421;DHT22;8828;48.800;9.540;2023-04-07T12:45:46;15.10;99.90
17421;DHT22;8828;48.800;9.540;2023-04-07T12:48:14;15.10;99.90
17421;DHT22;8828;48.800;9.540;2023-04-07T12:50:44;15.10;99.90
17421;DHT22;8828;48.800;9.540;2023-04-07T12:53:12;15.20;99.90
17421;DHT22;8828;48.800;9.540;2023-04-07T12:55:40;15.20;99.90
17421;DHT22;8828;48.800;9.540;2023-04-07T12:58:09;15.20;99.90
17421;DHT22;8828;48.800;9.540;2023-04-07T13:00:37;15.30;99.90
17421;DHT22;8828;48.800;9.540;2023-04-07T13:03:05;15.30;99.90
17421;DHT22;8828;48.800;9.540;2023-04-07T13:05:33;15.30;99.90
17421;DHT22;8828;48.800;9.540;2023-04-07T13:08:01;15.30;99.90
17421;DHT22;8828;48.800;9.540;2023-04-07T13:10:29;15.40;99.90
17421;DHT22;8828;48.800;9.540;2023-04-07T13:12:57;15.40;99.90
17421;DHT22;8828;48.800;9.540;2023-04-07T13:15:27;15.40;99.90
17421;DHT22;8828;48.800;9.540;2023-04-07T13:17:55;15.50;99.90
17421;DHT22;8828;48.800;9.540;2023-04-07T13:20:23;15.40;99.90
17421;DHT22;8828;48.800;9.540;2023-04-07T13:22:53;15.40;99.90
17421;DHT22;8828;48.800;9.540;2023-04-07T13:25:26;15.50;99.90
17421;DHT22;8828;48.800;9.540;2023-04-07T13:27:54;15.50;99.90
17421;DHT22;8828;48.800;9.540;2023-04-07T13:30:22;15.50;99.90
17421;DHT22;8828;48.800;9.540;2023-04-07T13:32:51;15.50;99.90
17421;DHT22;8828;48.800;9.540;2023-04-07T13:35:20;15.40;99.90
17421;DHT22;8828;48.800;9.540;2023-04-07T13:37:48;15.40;99.90
17421;DHT22;8828;48.800;9.540;2023-04-07T13:40:16;15.40;99.90
17421;DHT22;8828;48.800;9.540;2023-04-07T13:42:44;15.30;99.90
17421;DHT22;8828;48.800;9.540;2023-04-07T13:45:12;15.20;99.90
17421;DHT22;8828;48.800;9.540;2023-04-07T13:47:40;15.00;99.90
17421;DHT22;8828;48.800;9.540;2023-04-07T13:50:10;15.00;99.90
17421;DHT22;8828;48.800;9.540;2023-04-07T13:52:37;14.90;99.90
17421;DHT22;8828;48.800;9.540;2023-04-07T13:55:06;14.70;99.90
17421;DHT22;8828;48.800;9.540;2023-04-07T13:57:34;14.50;99.90
17421;DHT22;8828;48.800;9.540;2023-04-07T14:00:02;14.40;99.90
17421;DHT22;8828;48.800;9.540;2023-04-07T14:02:30;14.30;99.90
17421;DHT22;8828;48.800;9.540;2023-04-07T14:04:58;14.30;99.90
17421;DHT22;8828;48.800;9.540;2023-04-07T14:07:28;14.20;99.90
17421;DHT22;8828;48.800;9.540;2023-04-07T14:09:55;14.20;99.90
17421;DHT22;8828;48.800;9.540;2023-04-07T14:12:24;14.10;99.90
17421;DHT22;8828;48.800;9.540;2023-04-07T14:14:52;14.10;99.90
17421;DHT22;8828;48.800;9.540;2023-04-07T14:17:20;14.00;99.90
17421;DHT22;8828;48.800;9.540;2023-04-07T14:19:48;14.00;99.90
17421;DHT22;8828;48.800;9.540;2023-04-07T14:22:16;14.00;99.90
17421;DHT22;8828;48.800;9.540;2023-04-07T14:24:45;13.90;99.90
17421;DHT22;8828;48.800;9.540;2023-04-07T14:27:13;13.90;99.90
17421;DHT22;8828;48.800;9.540;2023-04-07T14:29:46;13.90;99.90
17421;DHT22;8828;48.800;9.540;2023-04-07T14:32:14;13.90;99.90
17421;DHT22;8828;48.800;9.540;2023-04-07T14:34:42;14.00;99.90
17421;DHT22;8828;48.800;9.540;2023-04-07T14:37:10;14.00;99.90
17421;DHT22;8828;48.800;9.540;2023-04-07T14:39:39;13.90;99.90
17421;DHT22;8828;48.800;9.540;2023-04-07T14:42:22;14.00;99.90
17421;DHT22;8828;48.800;9.540;2023-04-07T14:44:50;14.00;99.90
17421;DHT22;8828;48.800;9.540;2023-04-07T14:47:18;14.00;99.90
17421;DHT22;8828;48.800;9.540;2023-04-07T14:49:46;14.00;99.90
17421;DHT22;8828;48.800;9.540;2023-04-07T14:52:18;14.00;99.90
17421;DHT22;8828;48.800;9.540;2023-04-07T14:54:46;14.00;99.90
17421;DHT22;8828;48.800;9.540;2023-04-07T14:57:14;14.00;99.90
17421;DHT22;8828;48.800;9.540;2023-04-07T14:59:44;14.00;99.90
17421;DHT22;8828;48.800;9.540;2023-04-07T15:02:12;14.00;99.90
17421;DHT22;8828;48.800;9.540;2023-04-07T15:04:40;13.90;99.90
17421;DHT22;8828;48.800;9.540;2023-04-07T15:07:08;13.90;99.90
17421;DHT22;8828;48.800;9.540;2023-04-07T15:09:36;13.80;99.90
17421;DHT22;8828;48.800;9.540;2023-04-07T15:12:04;13.80;99.90
17421;DHT22;8828;48.800;9.540;2023-04-07T15:14:32;13.80;99.90
17421;DHT22;8828;48.800;9.540;2023-04-07T15:17:01;13.80;99.90
17421;DHT22;8828;48.800;9.540;2023-04-07T15:19:29;13.80;99.90
17421;DHT22;8828;48.800;9.540;2023-04-07T15:21:57;13.80;99.90
17421;DHT22;8828;48.800;9.540;2023-04-07T15:24:25;13.80;99.90
17421;DHT22;8828;48.800;9.540;2023-04-07T15:26:53;13.80;99.90
17421;DHT22;8828;48.800;9.540;2023-04-07T15:29:21;13.80;99.90
17421;DHT22;8828;48.800;9.540;2023-04-07T15:31:49;13.90;99.90
17421;DHT22;8828;48.800;9.540;2023-04-07T15:34:18;14.00;99.90
17421;DHT22;8828;48.800;9.540;2023-04-07T15:36:46;14.00;99.90
17421;DHT22;8828;48.800;9.540;2023-04-07T15:39:14;14.10;99.90
17421;DHT22;8828;48.800;9.540;2023-04-07T15:41:42;14.10;99.90
17421;DHT22;8828;48.800;9.540;2023-04-07T15:44:16;14.20;99.90
17421;DHT22;8828;48.800;9.540;2023-04-07T15:46:44;14.20;99.90
17421;DHT22;8828;48.800;9.540;2023-04-07T15:49:12;14.30;99.90
17421;DHT22;8828;48.800;9.540;2023-04-07T15:51:46;14.40;99.90
17421;DHT22;8828;48.800;9.540;2023-04-07T15:54:14;14.40;99.90
17421;DHT22;8828;48.800;9.540;2023-04-07T15:56:42;14.50;99.90
17421;DHT22;8828;48.800;9.540;2023-04-07T15:59:10;14.50;99.90
17421;DHT22;8828;48.800;9.540;2023-04-07T16:01:38;14.60;99.90
17421;DHT22;8828;48.800;9.540;2023-04-07T16:04:06;14.60;99.90
17421;DHT22;8828;48.800;9.540;2023-04-07T16:06:34;14.50;99.90
17421;DHT22;8828;48.800;9.540;2023-04-07T16:09:04;14.40;99.90